sensor_id;sensor_type;location;lat;lon;timestamp;P1;durP1;ratioP1;P2;durP2;ratioP2
3309;SDS011;1667;53.238;10.394;2023-08-31T00:01:00;6.10;;;4.90;;
3309;SDS011;1667;53.238;10.394;2023-08-31T00:06:02;4.53;;;3.83;;
3309;SDS011;1667;53.238;10.394;2023-08-31T00:11:01;5.60;;;4.73;;
3309;SDS011;1667;53.238;10.394;2023-08-31T00:16:00;6.60;;;5.40;;
3309;SDS011;1667;53.238;10.394;2023-08-31T00:21:02;4.70;;;3.90;;
3309;SDS011;1667;53.238;10.394;2023-08-31T00:26:00;6.63;;;4.83;;
3309;SDS011;1667;53.238;10.394;2023-08-31T00:31:00;5.13;;;4.63;;
3309;SDS011;1667;53.238;10.394;2023-08-31T00:36:03;4.97;;;4.30;;
3309;SDS011;1667;53.238;10.394;2023-08-31T00:41:02;6.40;;;4.80;;
3309;SDS011;1667;53.238;10.394;2023-08-31T00:46:01;8.97;;;7.03;;
3309;SDS011;1667;53.238;10.394;2023-08-31T00:51:02;5.87;;;5.27;;
3309;SDS011;1667;53.238;10.394;2023-08-31T00:56:05;7.00;;;5.20;;
3309;SDS011;1667;53.238;10.394;2023-08-31T01:01:06;9.97;;;6.40;;
3309;SDS011;1667;53.238;10.394;2023-08-31T01:06:16;6.77;;;4.83;;
3309;SDS011;1667;53.238;10.394;2023-08-31T01:11:31;5.63;;;4.67;;
3309;SDS011;1667;53.238;10.394;2023-08-31T01:16:39;4.57;;;4.00;;
3309;SDS011;1667;53.238;10.394;2023-08-31T01:21:43;7.27;;;5.63;;
3309;SDS011;1667;53.238;10.394;2023-08-31T01:26:48;6.00;;;4.70;;
3309;SDS011;1667;53.238;10.394;2023-08-31T01:31:49;8.03;;;5.67;;
3309;SDS011;1667;53.238;10.394;2023-08-31T01:36:48;6.30;;;5.47;;
3309;SDS011;1667;53.238;10.394;2023-08-31T01:41:53;5.90;;;4.97;;
3309;SDS011;1667;53.238;10.394;2023-08-31T01:47:01;12.93;;;5.47;;
3309;SDS011;1667;53.238;10.394;2023-08-31T01:52:02;4.57;;;3.93;;
3309;SDS011;1667;53.238;10.394;2023-08-31T01:57:02;5.00;;;4.17;;
3309;SDS011;1667;53.238;10.394;2023-08-31T02:02:13;6.17;;;4.10;;
3309;SDS011;1667;53.238;10.394;2023-08-31T02:07:13;6.37;;;4.83;;
3309;SDS011;1667;53.238;10.394;2023-08-31T02:12:13;5.20;;;4.17;;
3309;SDS011;1667;53.238;10.394;2023-08-31T02:17:12;7.47;;;3.83;;
3309;SDS011;1667;53.238;10.394;2023-08-31T02:22:11;4.53;;;3.60;;
3309;SDS011;1667;53.238;10.394;2023-08-31T02:27:09;4.47;;;4.07;;
3309;SDS011;1667;53.238;10.394;2023-08-31T02:32:10;5.30;;;3.80;;
3309;SDS011;1667;53.238;10.394;2023-08-31T02:37:09;5.57;;;3.90;;
3309;SDS011;1667;53.238;10.394;2023-08-31T02:42:07;7.00;;;4.50;;
3309;SDS011;1667;53.238;10.394;2023-08-31T02:47:07;5.90;;;4.47;;
3309;SDS011;1667;53.238;10.394;2023-08-31T02:52:07;6.80;;;3.70;;
3309;SDS011;1667;53.238;10.394;2023-08-31T02:57:06;5.00;;;3.70;;
3309;SDS011;1667;53.238;10.394;2023-08-31T03:02:05;4.30;;;3.23;;
3309;SDS011;1667;53.238;10.394;2023-08-31T03:07:04;8.77;;;3.03;;
3309;SDS011;1667;53.238;10.394;2023-08-31T03:12:05;6.17;;;3.37;;
3309;SDS011;1667;53.238;10.394;2023-08-31T03:17:04;4.23;;;3.30;;
3309;SDS011;1667;53.238;10.394;2023-08-31T03:22:03;4.20;;;2.90;;
3309;SDS011;1667;53.238;10.394;2023-08-31T03:27:02;3.80;;;2.63;;
3309;SDS011;1667;53.238;10.394;2023-08-31T03:32:03;3.70;;;3.13;;
3309;SDS011;1667;53.238;10.394;2023-08-31T03:37:02;4.70;;;2.80;;
3309;SDS011;1667;53.238;10.394;2023-08-31T03:42:03;4.97;;;2.67;;
3309;SDS011;1667;53.238;10.394;2023-08-31T03:47:04;3.33;;;3.00;;
3309;SDS011;1667;53.238;10.394;2023-08-31T03:52:04;5.93;;;2.80;;
3309;SDS011;1667;53.238;10.394;2023-08-31T03:57:03;2.03;;;1.80;;
3309;SDS011;1667;53.238;10.394;2023-08-31T04:02:04;2.70;;;2.50;;
3309;SDS011;1667;53.238;10.394;2023-08-31T04:07:04;2.23;;;2.03;;
3309;SDS011;1667;53.238;10.394;2023-08-31T04:12:03;3.40;;;2.13;;
3309;SDS011;1667;53.238;10.394;2023-08-31T04:17:04;2.60;;;2.20;;
3309;SDS011;1667;53.238;10.394;2023-08-31T04:22:04;2.43;;;2.00;;
3309;SDS011;1667;53.238;10.394;2023-08-31T04:27:03;3.90;;;2.33;;
3309;SDS011;1667;53.238;10.394;2023-08-31T04:32:03;2.50;;;2.30;;
3309;SDS011;1667;53.238;10.394;2023-08-31T04:37:03;5.17;;;2.57;;
3309;SDS011;1667;53.238;10.394;2023-08-31T04:42:03;2.20;;;2.10;;
3309;SDS011;1667;53.238;10.394;2023-08-31T04:47:04;2.30;;;2.10;;
3309;SDS011;1667;53.238;10.394;2023-08-31T04:52:03;3.57;;;2.60;;
3309;SDS011;1667;53.238;10.394;2023-08-31T04:57:02;2.73;;;2.53;;
3309;SDS011;1667;53.238;10.394;2023-08-31T05:02:10;3.20;;;2.47;;
3309;SDS011;1667;53.238;10.394;2023-08-31T05:07:08;3.37;;;3.07;;
3309;SDS011;1667;53.238;10.394;2023-08-31T05:12:08;5.37;;;2.70;;
3309;SDS011;1667;53.238;10.394;2023-08-31T05:17:09;5.23;;;4.07;;
3309;SDS011;1667;53.238;10.394;2023-08-31T05:22:08;4.83;;;4.03;;
3309;SDS011;1667;53.238;10.394;2023-08-31T05:27:07;4.97;;;3.93;;
3309;SDS011;1667;53.238;10.394;2023-08-31T05:32:06;3.80;;;3.03;;
3309;SDS011;1667;53.238;10.394;2023-08-31T05:37:06;5.47;;;2.67;;
3309;SDS011;1667;53.238;10.394;2023-08-31T05:42:06;5.13;;;3.37;;
3309;SDS011;1667;53.238;10.394;2023-08-31T05:47:04;4.50;;;2.40;;
3309;SDS011;1667;53.238;10.394;2023-08-31T05:52:04;3.30;;;3.00;;
3309;SDS011;1667;53.238;10.394;2023-08-31T06:03:37;5.80;;;3.83;;
3309;SDS011;1667;53.238;10.394;2023-08-31T06:08:36;2.37;;;2.10;;
3309;SDS011;1667;53.238;10.394;2023-08-31T06:19:26;4.90;;;3.40;;
3309;SDS011;1667;53.238;10.394;2023-08-31T06:24:24;3.50;;;2.77;;
3309;SDS011;1667;53.238;10.394;2023-08-31T06:29:23;8.10;;;3.80;;
3309;SDS011;1667;53.238;10.394;2023-08-31T06:34:21;4.83;;;3.63;;
3309;SDS011;1667;53.238;10.394;2023-08-31T06:39:22;4.47;;;2.90;;
3309;SDS011;1667;53.238;10.394;2023-08-31T06:44:21;3.60;;;2.97;;
3309;SDS011;1667;53.238;10.394;2023-08-31T06:49:20;7.93;;;2.63;;
3309;SDS011;1667;53.238;10.394;2023-08-31T06:54:21;4.40;;;3.10;;
3309;SDS011;1667;53.238;10.394;2023-08-31T06:59:20;5.53;;;2.57;;
3309;SDS011;1667;53.238;10.394;2023-08-31T07:04:18;3.60;;;3.10;;
3309;SDS011;1667;53.238;10.394;2023-08-31T07:09:17;7.17;;;2.83;;
3309;SDS011;1667;53.238;10.394;2023-08-31T07:14:18;3.63;;;2.90;;
3309;SDS011;1667;53.238;10.394;2023-08-31T07:19:16;5.47;;;3.20;;
3309;SDS011;1667;53.238;10.394;2023-08-31T07:24:15;4.47;;;2.70;;
3309;SDS011;1667;53.238;10.394;2023-08-31T07:29:14;3.50;;;2.90;;
3309;SDS011;1667;53.238;10.394;2023-08-31T07:34:14;4.83;;;3.00;;
3309;SDS011;1667;53.238;10.394;2023-08-31T07:39:13;5.30;;;2.90;;
3309;SDS011;1667;53.238;10.394;2023-08-31T07:44:14;5.60;;;3.03;;
3309;SDS011;1667;53.238;10.394;2023-08-31T07:49:15;9.07;;;2.90;;
3309;SDS011;1667;53.238;10.394;2023-08-31T07:54:18;4.33;;;1.87;;
3309;SDS011;1667;53.238;10.394;2023-08-31T07:59:18;5.70;;;2.70;;
3309;SDS011;1667;53.238;10.394;2023-08-31T08:04:17;7.23;;;2.47;;
3309;SDS011;1667;53.238;10.394;2023-08-31T08:15:06;3.40;;;2.90;;
3309;SDS011;1667;53.238;10.394;2023-08-31T08:20:08;4.30;;;2.90;;
3309;SDS011;1667;53.238;10.394;2023-08-31T08:25:07;2.70;;;2.50;;
3309;SDS011;1667;53.238;10.394;2023-08-31T08:30:07;3.77;;;3.20;;
3309;SDS011;1667;53.238;10.394;2023-08-31T08:35:08;5.27;;;3.17;;
3309;SDS011;1667;53.238;10.394;2023-08-31T08:40:07;3.80;;;3.13;;
3309;SDS011;1667;53.238;10.394;2023-08-31T08:45:08;6.90;;;3.00;;
3309;SDS011;1667;53.238;10.394;2023-08-31T08:50:14;2.30;;;1.77;;
3309;SDS011;1667;53.238;10.394;2023-08-31T08:55:14;2.23;;;2.03;;
3309;SDS011;1667;53.238;10.394;2023-08-31T09:00:13;2.33;;;2.00;;
3309;SDS011;1667;53.238;10.394;2023-08-31T09:05:14;1.57;;;1.47;;
3309;SDS011;1667;53.238;10.394;2023-08-31T09:10:13;3.40;;;2.20;;
3309;SDS011;1667;53.238;10.394;2023-08-31T09:15:12;1.97;;;1.77;;
3309;SDS011;1667;53.238;10.394;2023-08-31T09:20:11;1.70;;;1.60;;
3309;SDS011;1667;53.238;10.394;2023-08-31T09:25:13;1.73;;;1.63;;
3309;SDS011;1667;53.238;10.394;2023-08-31T09:30:12;2.40;;;1.60;;
3309;SDS011;1667;53.238;10.394;2023-08-31T09:35:11;1.43;;;1.33;;
3309;SDS011;1667;53.238;10.394;2023-08-31T09:40:20;3.53;;;1.63;;
3309;SDS011;1667;53.238;10.394;2023-08-31T09:45:24;2.07;;;1.33;;
3309;SDS011;1667;53.238;10.394;2023-08-31T09:50:43;1.70;;;1.60;;
3309;SDS011;1667;53.238;10.394;2023-08-31T09:55:44;5.03;;;1.73;;
3309;SDS011;1667;53.238;10.394;2023-08-31T10:00:45;2.23;;;2.00;;
3309;SDS011;1667;53.238;10.394;2023-08-31T10:05:48;1.50;;;1.40;;
3309;SDS011;1667;53.238;10.394;2023-08-31T10:10:49;2.37;;;1.33;;
3309;SDS011;1667;53.238;10.394;2023-08-31T10:15:49;1.90;;;1.20;;
3309;SDS011;1667;53.238;10.394;2023-08-31T10:20:48;1.10;;;1.00;;
3309;SDS011;1667;53.238;10.394;2023-08-31T10:26:01;1.53;;;1.43;;
3309;SDS011;1667;53.238;10.394;2023-08-31T10:31:02;1.90;;;1.80;;
3309;SDS011;1667;53.238;10.394;2023-08-31T10:36:02;2.90;;;1.23;;
3309;SDS011;1667;53.238;10.394;2023-08-31T10:41:03;1.30;;;1.27;;
3309;SDS011;1667;53.238;10.394;2023-08-31T10:46:25;1.70;;;1.60;;
3309;SDS011;1667;53.238;10.394;2023-08-31T10:51:29;2.37;;;1.67;;
3309;SDS011;1667;53.238;10.394;2023-08-31T10:56:31;1.77;;;1.40;;
3309;SDS011;1667;53.238;10.394;2023-08-31T11:12:24;1.50;;;1.40;;
3309;SDS011;1667;53.238;10.394;2023-08-31T11:17:23;1.53;;;1.43;;
3309;SDS011;1667;53.238;10.394;2023-08-31T11:22:25;1.70;;;1.60;;
3309;SDS011;1667;53.238;10.394;2023-08-31T11:27:26;1.50;;;1.40;;
3309;SDS011;1667;53.238;10.394;2023-08-31T11:32:25;1.87;;;1.77;;
3309;SDS011;1667;53.238;10.394;2023-08-31T11:37:24;1.17;;;1.07;;
3309;SDS011;1667;53.238;10.394;2023-08-31T11:42:27;1.33;;;1.23;;
3309;SDS011;1667;53.238;10.394;2023-08-31T11:47:26;1.07;;;0.90;;
3309;SDS011;1667;53.238;10.394;2023-08-31T11:52:25;1.07;;;1.07;;
3309;SDS011;1667;53.238;10.394;2023-08-31T11:57:25;1.90;;;1.13;;
3309;SDS011;1667;53.238;10.394;2023-08-31T12:02:26;2.40;;;1.67;;
3309;SDS011;1667;53.238;10.394;2023-08-31T12:07:25;1.40;;;1.20;;
3309;SDS011;1667;53.238;10.394;2023-08-31T12:12:24;1.17;;;1.07;;
3309;SDS011;1667;53.238;10.394;2023-08-31T12:17:24;1.00;;;1.00;;
3309;SDS011;1667;53.238;10.394;2023-08-31T12:22:23;3.17;;;2.87;;
3309;SDS011;1667;53.238;10.394;2023-08-31T12:33:23;1.30;;;1.30;;
3309;SDS011;1667;53.238;10.394;2023-08-31T12:38:22;2.60;;;1.87;;
3309;SDS011;1667;53.238;10.394;2023-08-31T12:43:21;2.40;;;1.30;;
3309;SDS011;1667;53.238;10.394;2023-08-31T12:48:19;2.13;;;1.57;;
3309;SDS011;1667;53.238;10.394;2023-08-31T12:53:20;1.90;;;1.80;;
3309;SDS011;1667;53.238;10.394;2023-08-31T12:58:20;2.20;;;1.93;;
3309;SDS011;1667;53.238;10.394;2023-08-31T13:03:19;1.73;;;1.40;;
3309;SDS011;1667;53.238;10.394;2023-08-31T13:08:20;1.40;;;1.30;;
3309;SDS011;1667;53.238;10.394;2023-08-31T13:13:19;1.43;;;1.33;;
3309;SDS011;1667;53.238;10.394;2023-08-31T13:18:17;2.13;;;1.40;;
3309;SDS011;1667;53.238;10.394;2023-08-31T13:23:16;4.20;;;1.60;;
3309;SDS011;1667;53.238;10.394;2023-08-31T13:28:17;2.77;;;1.07;;
3309;SDS011;1667;53.238;10.394;2023-08-31T13:33:16;1.10;;;1.00;;
3309;SDS011;1667;53.238;10.394;2023-08-31T13:38:15;1.00;;;1.00;;
3309;SDS011;1667;53.238;10.394;2023-08-31T13:43:13;0.90;;;0.90;;
3309;SDS011;1667;53.238;10.394;2023-08-31T13:48:13;3.00;;;0.93;;
3309;SDS011;1667;53.238;10.394;2023-08-31T13:53:12;0.83;;;0.80;;
3309;SDS011;1667;53.238;10.394;2023-08-31T13:58:11;0.53;;;0.53;;
3309;SDS011;1667;53.238;10.394;2023-08-31T14:03:10;1.03;;;0.90;;
3309;SDS011;1667;53.238;10.394;2023-08-31T14:08:10;0.70;;;0.70;;
3309;SDS011;1667;53.238;10.394;2023-08-31T14:13:09;0.83;;;0.60;;
3309;SDS011;1667;53.238;10.394;2023-08-31T14:18:08;1.03;;;0.70;;
3309;SDS011;1667;53.238;10.394;2023-08-31T14:23:09;2.50;;;0.80;;
3309;SDS011;1667;53.238;10.394;2023-08-31T14:28:08;1.07;;;0.97;;
3309;SDS011;1667;53.238;10.394;2023-08-31T14:38:38;1.23;;;1.13;;
3309;SDS011;1667;53.238;10.394;2023-08-31T14:43:36;0.70;;;0.70;;
3309;SDS011;1667;53.238;10.394;2023-08-31T14:48:35;0.90;;;0.90;;
3309;SDS011;1667;53.238;10.394;2023-08-31T14:53:34;1.77;;;0.70;;
3309;SDS011;1667;53.238;10.394;2023-08-31T14:58:36;1.03;;;0.73;;
3309;SDS011;1667;53.238;10.394;2023-08-31T15:03:35;0.80;;;0.70;;
3309;SDS011;1667;53.238;10.394;2023-08-31T15:08:34;1.90;;;0.80;;
3309;SDS011;1667;53.238;10.394;2023-08-31T15:13:36;1.37;;;0.90;;
3309;SDS011;1667;53.238;10.394;2023-08-31T15:18:35;1.03;;;0.70;;
3309;SDS011;1667;53.238;10.394;2023-08-31T15:23:34;1.33;;;0.80;;
3309;SDS011;1667;53.238;10.394;2023-08-31T15:28:33;3.90;;;0.87;;
3309;SDS011;1667;53.238;10.394;2023-08-31T15:33:34;2.60;;;1.00;;
3309;SDS011;1667;53.238;10.394;2023-08-31T15:38:33;0.97;;;0.90;;
3309;SDS011;1667;53.238;10.394;2023-08-31T15:43:34;4.83;;;1.00;;
3309;SDS011;1667;53.238;10.394;2023-08-31T15:48:36;0.80;;;0.70;;
3309;SDS011;1667;53.238;10.394;2023-08-31T15:53:36;1.03;;;0.80;;
3309;SDS011;1667;53.238;10.394;2023-08-31T15:58:35;0.90;;;0.90;;
3309;SDS011;1667;53.238;10.394;2023-08-31T16:09:25;1.60;;;0.67;;
3309;SDS011;1667;53.238;10.394;2023-08-31T16:14:24;0.80;;;0.70;;
3309;SDS011;1667;53.238;10.394;2023-08-31T16:19:23;1.27;;;0.93;;
3309;SDS011;1667;53.238;10.394;2023-08-31T16:24:21;2.00;;;0.93;;
3309;SDS011;1667;53.238;10.394;2023-08-31T16:29:21;0.70;;;0.60;;
3309;SDS011;1667;53.238;10.394;2023-08-31T16:34:20;0.77;;;0.77;;
3309;SDS011;1667;53.238;10.394;2023-08-31T16:39:19;1.00;;;0.90;;
3309;SDS011;1667;53.238;10.394;2023-08-31T16:44:18;1.53;;;0.70;;
3309;SDS011;1667;53.238;10.394;2023-08-31T16:49:18;0.80;;;0.80;;
3309;SDS011;1667;53.238;10.394;2023-08-31T16:54:18;2.57;;;0.77;;
3309;SDS011;1667;53.238;10.394;2023-08-31T16:59:17;0.70;;;0.70;;
3309;SDS011;1667;53.238;10.394;2023-08-31T17:04:16;1.23;;;0.90;;
3309;SDS011;1667;53.238;10.394;2023-08-31T17:09:17;1.53;;;1.07;;
3309;SDS011;1667;53.238;10.394;2023-08-31T17:14:16;0.80;;;0.70;;
3309;SDS011;1667;53.238;10.394;2023-08-31T17:19:17;2.90;;;0.73;;
3309;SDS011;1667;53.238;10.394;2023-08-31T17:30:05;0.93;;;0.80;;
3309;SDS011;1667;53.238;10.394;2023-08-31T17:35:06;0.80;;;0.80;;
3309;SDS011;1667;53.238;10.394;2023-08-31T17:40:06;0.80;;;0.70;;
3309;SDS011;1667;53.238;10.394;2023-08-31T17:45:06;0.77;;;0.77;;
3309;SDS011;1667;53.238;10.394;2023-08-31T17:50:08;0.77;;;0.77;;
3309;SDS011;1667;53.238;10.394;2023-08-31T17:55:08;2.93;;;0.70;;
3309;SDS011;1667;53.238;10.394;2023-08-31T18:00:07;0.70;;;0.70;;
3309;SDS011;1667;53.238;10.394;2023-08-31T18:05:09;0.80;;;0.80;;
3309;SDS011;1667;53.238;10.394;2023-08-31T18:10:08;0.90;;;0.80;;
3309;SDS011;1667;53.238;10.394;2023-08-31T18:15:07;1.43;;;1.10;;
3309;SDS011;1667;53.238;10.394;2023-08-31T18:20:09;1.50;;;1.40;;
3309;SDS011;1667;53.238;10.394;2023-08-31T18:25:09;0.87;;;0.87;;
3309;SDS011;1667;53.238;10.394;2023-08-31T18:30:08;1.23;;;1.10;;
3309;SDS011;1667;53.238;10.394;2023-08-31T18:35:09;0.90;;;0.77;;
3309;SDS011;1667;53.238;10.394;2023-08-31T18:40:08;0.80;;;0.80;;
3309;SDS011;1667;53.238;10.394;2023-08-31T18:45:09;1.37;;;1.20;;
3309;SDS011;1667;53.238;10.394;2023-08-31T18:50:12;1.30;;;0.90;;
3309;SDS011;1667;53.238;10.394;2023-08-31T18:55:17;1.57;;;1.00;;
3309;SDS011;1667;53.238;10.394;2023-08-31T19:00:16;3.43;;;1.27;;
3309;SDS011;1667;53.238;10.394;2023-08-31T19:05:17;1.40;;;0.90;;
3309;SDS011;1667;53.238;10.394;2023-08-31T19:10:16;1.40;;;1.30;;
3309;SDS011;1667;53.238;10.394;2023-08-31T19:15:15;1.40;;;1.17;;
3309;SDS011;1667;53.238;10.394;2023-08-31T19:20:15;1.17;;;1.00;;
3309;SDS011;1667;53.238;10.394;2023-08-31T19:25:15;1.40;;;1.30;;
3309;SDS011;1667;53.238;10.394;2023-08-31T19:30:15;0.90;;;0.90;;
3309;SDS011;1667;53.238;10.394;2023-08-31T19:35:14;1.03;;;0.90;;
3309;SDS011;1667;53.238;10.394;2023-08-31T19:40:39;0.87;;;0.87;;
3309;SDS011;1667;53.238;10.394;2023-08-31T19:45:38;0.97;;;0.97;;
3309;SDS011;1667;53.238;10.394;2023-08-31T19:50:39;0.90;;;0.90;;
3309;SDS011;1667;53.238;10.394;2023-08-31T19:55:38;2.60;;;1.00;;
3309;SDS011;1667;53.238;10.394;2023-08-31T20:00:36;0.80;;;0.80;;
3309;SDS011;1667;53.238;10.394;2023-08-31T20:05:35;0.80;;;0.80;;
3309;SDS011;1667;53.238;10.394;2023-08-31T20:10:36;0.73;;;0.73;;
3309;SDS011;1667;53.238;10.394;2023-08-31T20:15:35;0.90;;;0.90;;
3309;SDS011;1667;53.238;10.394;2023-08-31T20:20:34;0.87;;;0.87;;
3309;SDS011;1667;53.238;10.394;2023-08-31T20:25:33;1.33;;;0.70;;
3309;SDS011;1667;53.238;10.394;2023-08-31T20:30:51;2.03;;;1.73;;
3309;SDS011;1667;53.238;10.394;2023-08-31T20:36:01;1.10;;;0.80;;
3309;SDS011;1667;53.238;10.394;2023-08-31T20:41:02;2.83;;;0.80;;
3309;SDS011;1667;53.238;10.394;2023-08-31T20:46:05;0.90;;;0.90;;
3309;SDS011;1667;53.238;10.394;2023-08-31T20:51:05;0.93;;;0.83;;
3309;SDS011;1667;53.238;10.394;2023-08-31T20:56:05;0.90;;;0.90;;
3309;SDS011;1667;53.238;10.394;2023-08-31T21:01:06;1.37;;;1.17;;
3309;SDS011;1667;53.238;10.394;2023-08-31T21:06:06;5.20;;;1.30;;
3309;SDS011;1667;53.238;10.394;2023-08-31T21:16:46;1.60;;;0.97;;
3309;SDS011;1667;53.238;10.394;2023-08-31T21:21:45;1.10;;;0.87;;
3309;SDS011;1667;53.238;10.394;2023-08-31T21:26:44;1.20;;;0.93;;
3309;SDS011;1667;53.238;10.394;2023-08-31T21:31:54;1.60;;;0.87;;
3309;SDS011;1667;53.238;10.394;2023-08-31T21:36:53;1.00;;;0.90;;
3309;SDS011;1667;53.238;10.394;2023-08-31T21:41:52;1.00;;;0.90;;
3309;SDS011;1667;53.238;10.394;2023-08-31T21:46:51;1.43;;;0.90;;
3309;SDS011;1667;53.238;10.394;2023-08-31T21:51:51;1.33;;;1.23;;
3309;SDS011;1667;53.238;10.394;2023-08-31T21:56:50;1.50;;;1.20;;
3309;SDS011;1667;53.238;10.394;2023-08-31T22:01:50;1.00;;;0.90;;
3309;SDS011;1667;53.238;10.394;2023-08-31T22:06:49;0.80;;;0.70;;
3309;SDS011;1667;53.238;10.394;2023-08-31T22:11:49;0.80;;;0.80;;
3309;SDS011;1667;53.238;10.394;2023-08-31T22:16:48;1.87;;;1.00;;
3309;SDS011;1667;53.238;10.394;2023-08-31T22:21:47;2.07;;;0.90;;
3309;SDS011;1667;53.238;10.394;2023-08-31T22:26:46;1.80;;;1.00;;
3309;SDS011;1667;53.238;10.394;2023-08-31T22:31:47;1.20;;;0.80;;
3309;SDS011;1667;53.238;10.394;2023-08-31T22:36:46;1.13;;;1.03;;
3309;SDS011;1667;53.238;10.394;2023-08-31T22:41:45;1.30;;;1.10;;
3309;SDS011;1667;53.238;10.394;2023-08-31T22:46:44;1.27;;;0.93;;
3309;SDS011;1667;53.238;10.394;2023-08-31T22:51:44;1.40;;;0.80;;
3309;SDS011;1667;53.238;10.394;2023-08-31T22:56:43;3.17;;;1.10;;
3309;SDS011;1667;53.238;10.394;2023-08-31T23:01:42;1.10;;;1.00;;
3309;SDS011;1667;53.238;10.394;2023-08-31T23:06:45;1.90;;;1.10;;
3309;SDS011;1667;53.238;10.394;2023-08-31T23:11:43;2.70;;;1.40;;
3309;SDS011;1667;53.238;10.394;2023-08-31T23:16:42;1.80;;;1.27;;
3309;SDS011;1667;53.238;10.394;2023-08-31T23:22:01;1.20;;;1.10;;
3309;SDS011;1667;53.238;10.394;2023-08-31T23:27:00;1.33;;;1.23;;
3309;SDS011;1667;53.238;10.394;2023-08-31T23:31:59;0.93;;;0.90;;
3309;SDS011;1667;53.238;10.394;2023-08-31T23:36:58;2.50;;;1.37;;
3309;SDS011;1667;53.238;10.394;2023-08-31T23:41:58;1.70;;;0.90;;
3309;SDS011;1667;53.238;10.394;2023-08-31T23:47:11;1.90;;;0.83;;
3309;SDS011;1667;53.238;10.394;2023-08-31T23:52:10;1.00;;;0.80;;
3309;SDS011;1667;53.238;10.394;2023-08-31T23:57:11;1.27;;;0.90;;
